sensor_id;sensor_type;location;lat;lon;timestamp;P1;durP1;ratioP1;P2;durP2;ratioP2
81894;SDS011;71358;45.642;13.758;2023-09-18T00:00:22;6.22;;;5.72;;
81894;SDS011;71358;45.642;13.758;2023-09-18T00:03:07;5.82;;;5.28;;
81894;SDS011;71358;45.642;13.758;2023-09-18T00:05:52;7.70;;;6.47;;
81894;SDS011;71358;45.642;13.758;2023-09-18T00:08:37;5.47;;;5.07;;
81894;SDS011;71358;45.642;13.758;2023-09-18T00:11:23;6.22;;;5.65;;
81894;SDS011;71358;45.642;13.758;2023-09-18T00:14:07;5.95;;;5.55;;
81894;SDS011;71358;45.642;13.758;2023-09-18T00:16:53;6.00;;;5.60;;
81894;SDS011;71358;45.642;13.758;2023-09-18T00:19:37;5.88;;;5.32;;
81894;SDS011;71358;45.642;13.758;2023-09-18T00:22:22;6.22;;;5.72;;
81894;SDS011;71358;45.642;13.758;2023-09-18T00:25:08;6.20;;;5.70;;
81894;SDS011;71358;45.642;13.758;2023-09-18T00:27:53;5.97;;;5.47;;
81894;SDS011;71358;45.642;13.758;2023-09-18T00:30:38;6.72;;;6.05;;
81894;SDS011;71358;45.642;13.758;2023-09-18T00:33:30;8.52;;;6.30;;
81894;SDS011;71358;45.642;13.758;2023-09-18T00:36:15;6.60;;;6.10;;
81894;SDS011;71358;45.642;13.758;2023-09-18T00:38:59;6.68;;;6.18;;
81894;SDS011;71358;45.642;13.758;2023-09-18T00:41:44;6.65;;;6.05;;
81894;SDS011;71358;45.642;13.758;2023-09-18T00:44:33;6.30;;;5.90;;
81894;SDS011;71358;45.642;13.758;2023-09-18T00:47:17;6.43;;;5.95;;
81894;SDS011;71358;45.642;13.758;2023-09-18T00:50:02;7.00;;;6.40;;
81894;SDS011;71358;45.642;13.758;2023-09-18T00:52:49;6.65;;;5.88;;
81894;SDS011;71358;45.642;13.758;2023-09-18T00:55:34;7.35;;;6.72;;
81894;SDS011;71358;45.642;13.758;2023-09-18T00:58:21;6.75;;;6.18;;
81894;SDS011;71358;45.642;13.758;2023-09-18T01:01:06;6.47;;;5.88;;
81894;SDS011;71358;45.642;13.758;2023-09-18T01:03:52;7.25;;;6.65;;
81894;SDS011;71358;45.642;13.758;2023-09-18T01:06:37;7.38;;;6.78;;
81894;SDS011;71358;45.642;13.758;2023-09-18T01:09:22;8.88;;;6.90;;
81894;SDS011;71358;45.642;13.758;2023-09-18T01:15:38;7.63;;;6.47;;
81894;SDS011;71358;45.642;13.758;2023-09-18T01:18:25;6.03;;;5.63;;
81894;SDS011;71358;45.642;13.758;2023-09-18T01:21:10;6.80;;;6.20;;
81894;SDS011;71358;45.642;13.758;2023-09-18T01:23:54;6.82;;;6.32;;
81894;SDS011;71358;45.642;13.758;2023-09-18T01:26:39;7.78;;;6.22;;
81894;SDS011;71358;45.642;13.758;2023-09-18T01:29:23;6.75;;;6.25;;
81894;SDS011;71358;45.642;13.758;2023-09-18T01:32:08;7.13;;;6.28;;
81894;SDS011;71358;45.642;13.758;2023-09-18T01:34:53;6.45;;;5.95;;
81894;SDS011;71358;45.642;13.758;2023-09-18T01:37:39;6.95;;;6.05;;
81894;SDS011;71358;45.642;13.758;2023-09-18T01:40:24;6.45;;;5.85;;
81894;SDS011;71358;45.642;13.758;2023-09-18T01:43:10;6.30;;;5.80;;
81894;SDS011;71358;45.642;13.758;2023-09-18T01:45:54;6.65;;;6.05;;
81894;SDS011;71358;45.642;13.758;2023-09-18T01:48:44;5.97;;;5.47;;
81894;SDS011;71358;45.642;13.758;2023-09-18T01:51:30;6.32;;;5.70;;
81894;SDS011;71358;45.642;13.758;2023-09-18T01:54:14;6.30;;;5.78;;
81894;SDS011;71358;45.642;13.758;2023-09-18T01:56:59;5.60;;;5.20;;
81894;SDS011;71358;45.642;13.758;2023-09-18T01:59:44;6.05;;;5.47;;
81894;SDS011;71358;45.642;13.758;2023-09-18T02:02:29;5.68;;;5.28;;
81894;SDS011;71358;45.642;13.758;2023-09-18T02:05:14;5.22;;;4.82;;
81894;SDS011;71358;45.642;13.758;2023-09-18T02:07:58;6.15;;;5.55;;
81894;SDS011;71358;45.642;13.758;2023-09-18T02:10:43;5.97;;;5.43;;
81894;SDS011;71358;45.642;13.758;2023-09-18T02:13:27;6.32;;;5.70;;
81894;SDS011;71358;45.642;13.758;2023-09-18T02:16:12;6.13;;;5.53;;
81894;SDS011;71358;45.642;13.758;2023-09-18T02:18:56;6.00;;;5.40;;
81894;SDS011;71358;45.642;13.758;2023-09-18T02:21:41;5.78;;;5.28;;
81894;SDS011;71358;45.642;13.758;2023-09-18T02:24:25;5.68;;;5.28;;
81894;SDS011;71358;45.642;13.758;2023-09-18T02:27:11;6.22;;;5.63;;
81894;SDS011;71358;45.642;13.758;2023-09-18T02:29:56;6.05;;;5.57;;
81894;SDS011;71358;45.642;13.758;2023-09-18T02:32:41;6.15;;;5.65;;
81894;SDS011;71358;45.642;13.758;2023-09-18T02:35:25;6.10;;;5.50;;
81894;SDS011;71358;45.642;13.758;2023-09-18T02:38:10;5.28;;;4.88;;
81894;SDS011;71358;45.642;13.758;2023-09-18T02:40:55;6.75;;;5.45;;
81894;SDS011;71358;45.642;13.758;2023-09-18T02:43:40;5.82;;;5.35;;
81894;SDS011;71358;45.642;13.758;2023-09-18T02:46:25;4.88;;;4.47;;
81894;SDS011;71358;45.642;13.758;2023-09-18T02:49:10;5.50;;;4.75;;
81894;SDS011;71358;45.642;13.758;2023-09-18T02:51:54;6.50;;;5.63;;
81894;SDS011;71358;45.642;13.758;2023-09-18T02:54:39;5.50;;;5.07;;
81894;SDS011;71358;45.642;13.758;2023-09-18T02:57:24;6.07;;;5.60;;
81894;SDS011;71358;45.642;13.758;2023-09-18T03:00:09;5.38;;;4.93;;
81894;SDS011;71358;45.642;13.758;2023-09-18T03:02:54;5.38;;;4.97;;
81894;SDS011;71358;45.642;13.758;2023-09-18T03:05:39;5.80;;;5.40;;
81894;SDS011;71358;45.642;13.758;2023-09-18T03:08:25;5.40;;;4.97;;
81894;SDS011;71358;45.642;13.758;2023-09-18T03:11:13;5.20;;;4.72;;
81894;SDS011;71358;45.642;13.758;2023-09-18T03:13:59;6.07;;;5.45;;
81894;SDS011;71358;45.642;13.758;2023-09-18T03:16:44;5.25;;;4.65;;
81894;SDS011;71358;45.642;13.758;2023-09-18T03:19:28;5.20;;;4.80;;
81894;SDS011;71358;45.642;13.758;2023-09-18T03:22:13;5.32;;;4.95;;
81894;SDS011;71358;45.642;13.758;2023-09-18T03:24:58;5.70;;;5.18;;
81894;SDS011;71358;45.642;13.758;2023-09-18T03:27:43;5.30;;;4.90;;
81894;SDS011;71358;45.642;13.758;2023-09-18T03:30:27;7.78;;;5.45;;
81894;SDS011;71358;45.642;13.758;2023-09-18T03:33:12;4.90;;;4.50;;
81894;SDS011;71358;45.642;13.758;2023-09-18T03:35:56;6.15;;;5.18;;
81894;SDS011;71358;45.642;13.758;2023-09-18T03:38:44;5.75;;;5.22;;
81894;SDS011;71358;45.642;13.758;2023-09-18T03:41:29;5.47;;;5.00;;
81894;SDS011;71358;45.642;13.758;2023-09-18T03:44:19;5.55;;;5.05;;
81894;SDS011;71358;45.642;13.758;2023-09-18T03:47:03;5.80;;;5.30;;
81894;SDS011;71358;45.642;13.758;2023-09-18T03:49:48;5.55;;;4.75;;
81894;SDS011;71358;45.642;13.758;2023-09-18T03:52:33;5.15;;;4.75;;
81894;SDS011;71358;45.642;13.758;2023-09-18T03:55:18;5.85;;;5.40;;
81894;SDS011;71358;45.642;13.758;2023-09-18T03:58:03;5.25;;;4.78;;
81894;SDS011;71358;45.642;13.758;2023-09-18T04:00:49;5.15;;;4.72;;
81894;SDS011;71358;45.642;13.758;2023-09-18T04:03:35;5.63;;;5.15;;
81894;SDS011;71358;45.642;13.758;2023-09-18T04:06:20;5.10;;;4.70;;
81894;SDS011;71358;45.642;13.758;2023-09-18T04:09:08;5.05;;;4.55;;
81894;SDS011;71358;45.642;13.758;2023-09-18T04:11:52;5.15;;;4.82;;
81894;SDS011;71358;45.642;13.758;2023-09-18T04:14:38;5.03;;;4.63;;
81894;SDS011;71358;45.642;13.758;2023-09-18T04:17:23;5.40;;;4.90;;
81894;SDS011;71358;45.642;13.758;2023-09-18T04:20:09;5.60;;;5.15;;
81894;SDS011;71358;45.642;13.758;2023-09-18T04:26:00;5.55;;;5.10;;
81894;SDS011;71358;45.642;13.758;2023-09-18T04:28:45;5.50;;;5.00;;
81894;SDS011;71358;45.642;13.758;2023-09-18T04:31:30;5.20;;;4.72;;
81894;SDS011;71358;45.642;13.758;2023-09-18T04:34:15;4.50;;;4.10;;
81894;SDS011;71358;45.642;13.758;2023-09-18T04:36:59;5.10;;;4.70;;
81894;SDS011;71358;45.642;13.758;2023-09-18T04:39:44;5.40;;;4.97;;
81894;SDS011;71358;45.642;13.758;2023-09-18T04:42:30;5.18;;;4.78;;
81894;SDS011;71358;45.642;13.758;2023-09-18T04:45:15;5.25;;;4.85;;
81894;SDS011;71358;45.642;13.758;2023-09-18T04:48:00;5.75;;;4.68;;
81894;SDS011;71358;45.642;13.758;2023-09-18T04:50:45;5.40;;;4.75;;
81894;SDS011;71358;45.642;13.758;2023-09-18T04:53:30;5.63;;;5.07;;
81894;SDS011;71358;45.642;13.758;2023-09-18T04:56:15;5.53;;;5.03;;
81894;SDS011;71358;45.642;13.758;2023-09-18T04:58:59;6.70;;;4.97;;
81894;SDS011;71358;45.642;13.758;2023-09-18T05:01:44;5.55;;;5.00;;
81894;SDS011;71358;45.642;13.758;2023-09-18T05:04:28;5.40;;;4.90;;
81894;SDS011;71358;45.642;13.758;2023-09-18T05:07:13;5.30;;;4.82;;
81894;SDS011;71358;45.642;13.758;2023-09-18T05:09:58;5.28;;;4.78;;
81894;SDS011;71358;45.642;13.758;2023-09-18T05:12:42;5.63;;;5.13;;
81894;SDS011;71358;45.642;13.758;2023-09-18T05:15:27;5.30;;;4.85;;
81894;SDS011;71358;45.642;13.758;2023-09-18T05:18:14;5.40;;;4.90;;
81894;SDS011;71358;45.642;13.758;2023-09-18T05:20:59;6.35;;;5.75;;
81894;SDS011;71358;45.642;13.758;2023-09-18T05:23:45;5.50;;;5.00;;
81894;SDS011;71358;45.642;13.758;2023-09-18T05:26:30;5.93;;;5.38;;
81894;SDS011;71358;45.642;13.758;2023-09-18T05:29:14;5.68;;;5.25;;
81894;SDS011;71358;45.642;13.758;2023-09-18T05:31:59;5.32;;;4.90;;
81894;SDS011;71358;45.642;13.758;2023-09-18T05:34:44;5.30;;;4.90;;
81894;SDS011;71358;45.642;13.758;2023-09-18T05:37:28;5.50;;;5.00;;
81894;SDS011;71358;45.642;13.758;2023-09-18T05:40:13;5.55;;;5.05;;
81894;SDS011;71358;45.642;13.758;2023-09-18T05:42:58;6.00;;;5.50;;
81894;SDS011;71358;45.642;13.758;2023-09-18T05:45:42;5.45;;;5.03;;
81894;SDS011;71358;45.642;13.758;2023-09-18T05:48:27;5.95;;;5.45;;
81894;SDS011;71358;45.642;13.758;2023-09-18T05:51:12;6.78;;;5.65;;
81894;SDS011;71358;45.642;13.758;2023-09-18T05:53:56;5.57;;;5.10;;
81894;SDS011;71358;45.642;13.758;2023-09-18T05:56:41;5.63;;;4.78;;
81894;SDS011;71358;45.642;13.758;2023-09-18T05:59:25;6.40;;;5.80;;
81894;SDS011;71358;45.642;13.758;2023-09-18T06:02:10;6.03;;;5.43;;
81894;SDS011;71358;45.642;13.758;2023-09-18T06:04:55;6.43;;;5.32;;
81894;SDS011;71358;45.642;13.758;2023-09-18T06:07:43;6.68;;;6.07;;
81894;SDS011;71358;45.642;13.758;2023-09-18T06:10:30;8.10;;;6.50;;
81894;SDS011;71358;45.642;13.758;2023-09-18T06:13:16;6.28;;;5.72;;
81894;SDS011;71358;45.642;13.758;2023-09-18T06:16:01;8.93;;;7.05;;
81894;SDS011;71358;45.642;13.758;2023-09-18T06:18:51;6.90;;;5.97;;
81894;SDS011;71358;45.642;13.758;2023-09-18T06:21:36;6.57;;;6.05;;
81894;SDS011;71358;45.642;13.758;2023-09-18T06:24:20;6.25;;;5.18;;
81894;SDS011;71358;45.642;13.758;2023-09-18T06:27:05;6.28;;;5.78;;
81894;SDS011;71358;45.642;13.758;2023-09-18T06:29:50;7.40;;;6.70;;
81894;SDS011;71358;45.642;13.758;2023-09-18T06:32:34;6.40;;;5.80;;
81894;SDS011;71358;45.642;13.758;2023-09-18T06:35:20;7.22;;;6.53;;
81894;SDS011;71358;45.642;13.758;2023-09-18T06:38:05;7.13;;;6.43;;
81894;SDS011;71358;45.642;13.758;2023-09-18T06:40:50;9.23;;;5.88;;
81894;SDS011;71358;45.642;13.758;2023-09-18T06:43:35;6.07;;;5.47;;
81894;SDS011;71358;45.642;13.758;2023-09-18T06:46:21;6.63;;;6.00;;
81894;SDS011;71358;45.642;13.758;2023-09-18T06:49:05;7.85;;;5.95;;
81894;SDS011;71358;45.642;13.758;2023-09-18T06:51:50;5.60;;;5.10;;
81894;SDS011;71358;45.642;13.758;2023-09-18T06:54:34;7.15;;;5.75;;
81894;SDS011;71358;45.642;13.758;2023-09-18T06:57:19;6.00;;;5.18;;
81894;SDS011;71358;45.642;13.758;2023-09-18T07:00:07;6.15;;;5.63;;
81894;SDS011;71358;45.642;13.758;2023-09-18T07:02:51;9.13;;;6.25;;
81894;SDS011;71358;45.642;13.758;2023-09-18T07:05:36;8.38;;;6.97;;
81894;SDS011;71358;45.642;13.758;2023-09-18T07:08:21;8.68;;;6.97;;
81894;SDS011;71358;45.642;13.758;2023-09-18T07:11:06;10.30;;;6.78;;
81894;SDS011;71358;45.642;13.758;2023-09-18T07:13:51;12.40;;;7.45;;
81894;SDS011;71358;45.642;13.758;2023-09-18T07:16:36;8.52;;;7.25;;
81894;SDS011;71358;45.642;13.758;2023-09-18T07:19:20;11.55;;;8.10;;
81894;SDS011;71358;45.642;13.758;2023-09-18T07:22:05;9.15;;;8.32;;
81894;SDS011;71358;45.642;13.758;2023-09-18T07:24:49;11.35;;;8.52;;
81894;SDS011;71358;45.642;13.758;2023-09-18T07:27:34;10.57;;;7.53;;
81894;SDS011;71358;45.642;13.758;2023-09-18T07:30:21;10.90;;;8.02;;
81894;SDS011;71358;45.642;13.758;2023-09-18T07:33:10;13.32;;;8.48;;
81894;SDS011;71358;45.642;13.758;2023-09-18T07:35:55;10.23;;;8.02;;
81894;SDS011;71358;45.642;13.758;2023-09-18T07:38:41;9.45;;;7.80;;
81894;SDS011;71358;45.642;13.758;2023-09-18T07:41:28;11.80;;;7.88;;
81894;SDS011;71358;45.642;13.758;2023-09-18T07:44:18;7.82;;;7.10;;
81894;SDS011;71358;45.642;13.758;2023-09-18T07:47:04;8.48;;;7.68;;
81894;SDS011;71358;45.642;13.758;2023-09-18T07:49:48;13.00;;;8.57;;
81894;SDS011;71358;45.642;13.758;2023-09-18T07:52:34;14.68;;;8.63;;
81894;SDS011;71358;45.642;13.758;2023-09-18T07:55:19;11.95;;;8.15;;
81894;SDS011;71358;45.642;13.758;2023-09-18T07:58:04;13.07;;;8.55;;
81894;SDS011;71358;45.642;13.758;2023-09-18T08:00:49;10.85;;;7.50;;
81894;SDS011;71358;45.642;13.758;2023-09-18T08:03:37;10.85;;;7.75;;
81894;SDS011;71358;45.642;13.758;2023-09-18T08:06:22;8.85;;;7.20;;
81894;SDS011;71358;45.642;13.758;2023-09-18T08:09:06;8.45;;;7.25;;
81894;SDS011;71358;45.642;13.758;2023-09-18T08:11:53;8.85;;;7.18;;
81894;SDS011;71358;45.642;13.758;2023-09-18T08:14:39;8.00;;;7.25;;
81894;SDS011;71358;45.642;13.758;2023-09-18T08:17:24;8.90;;;7.75;;
81894;SDS011;71358;45.642;13.758;2023-09-18T08:20:10;10.27;;;8.52;;
81894;SDS011;71358;45.642;13.758;2023-09-18T08:22:57;12.57;;;8.75;;
81894;SDS011;71358;45.642;13.758;2023-09-18T08:25:44;8.05;;;6.80;;
81894;SDS011;71358;45.642;13.758;2023-09-18T08:28:30;14.00;;;7.38;;
81894;SDS011;71358;45.642;13.758;2023-09-18T08:31:15;8.75;;;6.72;;
81894;SDS011;71358;45.642;13.758;2023-09-18T08:34:02;7.22;;;6.53;;
81894;SDS011;71358;45.642;13.758;2023-09-18T08:36:47;8.40;;;6.97;;
81894;SDS011;71358;45.642;13.758;2023-09-18T08:39:31;8.75;;;7.72;;
81894;SDS011;71358;45.642;13.758;2023-09-18T08:42:16;8.07;;;6.32;;
81894;SDS011;71358;45.642;13.758;2023-09-18T08:45:01;7.32;;;6.10;;
81894;SDS011;71358;45.642;13.758;2023-09-18T08:47:47;6.63;;;5.57;;
81894;SDS011;71358;45.642;13.758;2023-09-18T08:50:33;5.47;;;4.97;;
81894;SDS011;71358;45.642;13.758;2023-09-18T08:53:19;6.63;;;5.30;;
81894;SDS011;71358;45.642;13.758;2023-09-18T08:56:04;6.13;;;5.53;;
81894;SDS011;71358;45.642;13.758;2023-09-18T08:58:50;8.07;;;5.10;;
81894;SDS011;71358;45.642;13.758;2023-09-18T09:01:34;6.47;;;5.45;;
81894;SDS011;71358;45.642;13.758;2023-09-18T09:04:19;6.22;;;5.22;;
81894;SDS011;71358;45.642;13.758;2023-09-18T09:07:03;6.38;;;5.03;;
81894;SDS011;71358;45.642;13.758;2023-09-18T09:09:48;6.03;;;5.13;;
81894;SDS011;71358;45.642;13.758;2023-09-18T09:12:49;5.75;;;4.47;;
81894;SDS011;71358;45.642;13.758;2023-09-18T09:15:45;5.28;;;4.80;;
81894;SDS011;71358;45.642;13.758;2023-09-18T09:18:30;7.78;;;5.47;;
81894;SDS011;71358;45.642;13.758;2023-09-18T09:21:15;6.57;;;5.38;;
81894;SDS011;71358;45.642;13.758;2023-09-18T09:24:01;6.80;;;5.68;;
81894;SDS011;71358;45.642;13.758;2023-09-18T09:26:56;6.82;;;5.70;;
81894;SDS011;71358;45.642;13.758;2023-09-18T09:29:42;9.05;;;6.05;;
81894;SDS011;71358;45.642;13.758;2023-09-18T09:32:42;10.05;;;6.28;;
81894;SDS011;71358;45.642;13.758;2023-09-18T09:35:34;6.90;;;6.28;;
81894;SDS011;71358;45.642;13.758;2023-09-18T09:38:19;8.10;;;6.53;;
81894;SDS011;71358;45.642;13.758;2023-09-18T09:41:05;10.90;;;5.82;;
81894;SDS011;71358;45.642;13.758;2023-09-18T09:43:50;7.47;;;5.40;;
81894;SDS011;71358;45.642;13.758;2023-09-18T09:46:35;5.88;;;5.38;;
81894;SDS011;71358;45.642;13.758;2023-09-18T09:49:20;5.90;;;5.30;;
81894;SDS011;71358;45.642;13.758;2023-09-18T09:52:14;6.85;;;5.90;;
81894;SDS011;71358;45.642;13.758;2023-09-18T09:55:16;5.45;;;5.05;;
81894;SDS011;71358;45.642;13.758;2023-09-18T09:58:06;5.43;;;4.88;;
81894;SDS011;71358;45.642;13.758;2023-09-18T10:00:54;5.60;;;5.13;;
81894;SDS011;71358;45.642;13.758;2023-09-18T10:03:43;5.55;;;5.07;;
81894;SDS011;71358;45.642;13.758;2023-09-18T10:06:30;6.10;;;4.90;;
81894;SDS011;71358;45.642;13.758;2023-09-18T10:09:20;5.53;;;4.68;;
81894;SDS011;71358;45.642;13.758;2023-09-18T10:12:12;6.40;;;5.80;;
81894;SDS011;71358;45.642;13.758;2023-09-18T10:15:05;6.43;;;5.00;;
81894;SDS011;71358;45.642;13.758;2023-09-18T10:17:53;5.63;;;5.13;;
81894;SDS011;71358;45.642;13.758;2023-09-18T10:20:40;7.20;;;5.65;;
81894;SDS011;71358;45.642;13.758;2023-09-18T10:23:32;5.68;;;5.18;;
81894;SDS011;71358;45.642;13.758;2023-09-18T10:26:28;5.47;;;4.97;;
81894;SDS011;71358;45.642;13.758;2023-09-18T10:29:17;5.78;;;5.18;;
81894;SDS011;71358;45.642;13.758;2023-09-18T10:32:05;5.63;;;5.10;;
81894;SDS011;71358;45.642;13.758;2023-09-18T10:34:54;6.82;;;5.10;;
81894;SDS011;71358;45.642;13.758;2023-09-18T10:37:39;6.13;;;4.90;;
81894;SDS011;71358;45.642;13.758;2023-09-18T10:40:27;6.55;;;5.95;;
81894;SDS011;71358;45.642;13.758;2023-09-18T10:43:14;5.65;;;5.25;;
81894;SDS011;71358;45.642;13.758;2023-09-18T10:46:00;6.47;;;5.97;;
81894;SDS011;71358;45.642;13.758;2023-09-18T10:48:44;5.82;;;5.25;;
81894;SDS011;71358;45.642;13.758;2023-09-18T10:51:31;6.30;;;5.00;;
81894;SDS011;71358;45.642;13.758;2023-09-18T10:54:21;6.35;;;5.72;;
81894;SDS011;71358;45.642;13.758;2023-09-18T10:57:07;6.78;;;5.63;;
81894;SDS011;71358;45.642;13.758;2023-09-18T10:59:52;8.25;;;5.43;;
81894;SDS011;71358;45.642;13.758;2023-09-18T11:02:42;8.15;;;5.50;;
81894;SDS011;71358;45.642;13.758;2023-09-18T11:05:30;6.30;;;5.70;;
81894;SDS011;71358;45.642;13.758;2023-09-18T11:08:28;6.70;;;6.18;;
81894;SDS011;71358;45.642;13.758;2023-09-18T11:11:19;7.40;;;5.43;;
81894;SDS011;71358;45.642;13.758;2023-09-18T11:14:04;6.13;;;5.50;;
81894;SDS011;71358;45.642;13.758;2023-09-18T11:16:55;5.80;;;5.28;;
81894;SDS011;71358;45.642;13.758;2023-09-18T11:19:43;8.45;;;5.68;;
81894;SDS011;71358;45.642;13.758;2023-09-18T11:22:29;7.20;;;5.53;;
81894;SDS011;71358;45.642;13.758;2023-09-18T11:28:26;5.40;;;4.88;;
81894;SDS011;71358;45.642;13.758;2023-09-18T11:31:14;5.53;;;4.47;;
81894;SDS011;71358;45.642;13.758;2023-09-18T11:34:00;6.97;;;4.85;;
81894;SDS011;71358;45.642;13.758;2023-09-18T11:36:55;6.65;;;5.45;;
81894;SDS011;71358;45.642;13.758;2023-09-18T11:39:40;6.10;;;5.50;;
81894;SDS011;71358;45.642;13.758;2023-09-18T11:42:27;5.53;;;4.65;;
81894;SDS011;71358;45.642;13.758;2023-09-18T11:45:16;5.55;;;5.00;;
81894;SDS011;71358;45.642;13.758;2023-09-18T11:48:01;6.72;;;5.13;;
81894;SDS011;71358;45.642;13.758;2023-09-18T11:50:47;8.20;;;5.25;;
81894;SDS011;71358;45.642;13.758;2023-09-18T11:53:35;5.55;;;4.97;;
81894;SDS011;71358;45.642;13.758;2023-09-18T11:56:23;8.32;;;4.70;;
81894;SDS011;71358;45.642;13.758;2023-09-18T11:59:08;7.05;;;5.07;;
81894;SDS011;71358;45.642;13.758;2023-09-18T12:01:54;6.85;;;4.63;;
81894;SDS011;71358;45.642;13.758;2023-09-18T12:04:45;5.30;;;4.80;;
81894;SDS011;71358;45.642;13.758;2023-09-18T12:07:31;5.15;;;4.75;;
81894;SDS011;71358;45.642;13.758;2023-09-18T12:10:16;5.38;;;4.97;;
81894;SDS011;71358;45.642;13.758;2023-09-18T12:13:05;5.38;;;4.82;;
81894;SDS011;71358;45.642;13.758;2023-09-18T12:15:59;4.70;;;4.30;;
81894;SDS011;71358;45.642;13.758;2023-09-18T12:18:46;6.00;;;5.10;;
81894;SDS011;71358;45.642;13.758;2023-09-18T12:21:32;5.95;;;5.38;;
81894;SDS011;71358;45.642;13.758;2023-09-18T12:24:24;5.57;;;5.07;;
81894;SDS011;71358;45.642;13.758;2023-09-18T12:27:09;5.82;;;5.32;;
81894;SDS011;71358;45.642;13.758;2023-09-18T12:29:53;5.82;;;5.32;;
81894;SDS011;71358;45.642;13.758;2023-09-18T12:32:38;6.13;;;5.13;;
81894;SDS011;71358;45.642;13.758;2023-09-18T12:35:23;5.85;;;5.30;;
81894;SDS011;71358;45.642;13.758;2023-09-18T12:38:13;5.10;;;4.60;;
81894;SDS011;71358;45.642;13.758;2023-09-18T12:40:59;6.93;;;5.30;;
81894;SDS011;71358;45.642;13.758;2023-09-18T12:43:49;6.25;;;5.18;;
81894;SDS011;71358;45.642;13.758;2023-09-18T12:46:34;6.03;;;5.43;;
81894;SDS011;71358;45.642;13.758;2023-09-18T12:49:23;5.50;;;5.00;;
81894;SDS011;71358;45.642;13.758;2023-09-18T12:52:11;5.82;;;5.32;;
81894;SDS011;71358;45.642;13.758;2023-09-18T12:54:57;5.68;;;5.18;;
81894;SDS011;71358;45.642;13.758;2023-09-18T12:57:42;5.82;;;5.32;;
81894;SDS011;71358;45.642;13.758;2023-09-18T13:00:27;6.72;;;5.93;;
81894;SDS011;71358;45.642;13.758;2023-09-18T13:03:12;6.07;;;5.20;;
81894;SDS011;71358;45.642;13.758;2023-09-18T13:09:18;5.47;;;5.05;;
81894;SDS011;71358;45.642;13.758;2023-09-18T13:12:07;7.22;;;5.75;;
81894;SDS011;71358;45.642;13.758;2023-09-18T13:14:59;6.68;;;6.07;;
81894;SDS011;71358;45.642;13.758;2023-09-18T13:18:00;6.00;;;5.50;;
81894;SDS011;71358;45.642;13.758;2023-09-18T13:20:47;7.05;;;6.45;;
81894;SDS011;71358;45.642;13.758;2023-09-18T13:23:32;7.13;;;6.32;;
81894;SDS011;71358;45.642;13.758;2023-09-18T13:26:16;7.55;;;5.88;;
81894;SDS011;71358;45.642;13.758;2023-09-18T13:29:01;6.82;;;6.13;;
81894;SDS011;71358;45.642;13.758;2023-09-18T13:31:47;9.63;;;7.32;;
81894;SDS011;71358;45.642;13.758;2023-09-18T13:34:31;7.75;;;6.97;;
81894;SDS011;71358;45.642;13.758;2023-09-18T13:37:16;6.88;;;6.13;;
81894;SDS011;71358;45.642;13.758;2023-09-18T13:40:02;7.15;;;6.28;;
81894;SDS011;71358;45.642;13.758;2023-09-18T13:42:50;7.45;;;6.85;;
81894;SDS011;71358;45.642;13.758;2023-09-18T13:45:34;7.97;;;7.18;;
81894;SDS011;71358;45.642;13.758;2023-09-18T13:48:19;8.68;;;7.13;;
81894;SDS011;71358;45.642;13.758;2023-09-18T13:51:04;7.65;;;6.95;;
81894;SDS011;71358;45.642;13.758;2023-09-18T13:53:48;11.02;;;8.57;;
81894;SDS011;71358;45.642;13.758;2023-09-18T13:56:33;9.20;;;8.30;;
81894;SDS011;71358;45.642;13.758;2023-09-18T13:59:17;10.45;;;8.00;;
81894;SDS011;71358;45.642;13.758;2023-09-18T14:02:02;13.00;;;7.95;;
81894;SDS011;71358;45.642;13.758;2023-09-18T14:04:48;10.65;;;8.20;;
81894;SDS011;71358;45.642;13.758;2023-09-18T14:07:33;11.20;;;7.45;;
81894;SDS011;71358;45.642;13.758;2023-09-18T14:10:18;10.75;;;8.02;;
81894;SDS011;71358;45.642;13.758;2023-09-18T14:13:04;7.60;;;6.90;;
81894;SDS011;71358;45.642;13.758;2023-09-18T14:15:49;7.45;;;6.75;;
81894;SDS011;71358;45.642;13.758;2023-09-18T14:18:33;8.88;;;7.65;;
81894;SDS011;71358;45.642;13.758;2023-09-18T14:21:18;8.05;;;7.18;;
81894;SDS011;71358;45.642;13.758;2023-09-18T14:24:03;7.65;;;6.85;;
81894;SDS011;71358;45.642;13.758;2023-09-18T14:26:48;8.95;;;7.90;;
81894;SDS011;71358;45.642;13.758;2023-09-18T14:29:32;9.27;;;8.35;;
81894;SDS011;71358;45.642;13.758;2023-09-18T14:32:17;10.05;;;8.27;;
81894;SDS011;71358;45.642;13.758;2023-09-18T14:35:02;9.95;;;8.15;;
81894;SDS011;71358;45.642;13.758;2023-09-18T14:37:49;10.52;;;7.97;;
81894;SDS011;71358;45.642;13.758;2023-09-18T14:40:33;9.82;;;7.55;;
81894;SDS011;71358;45.642;13.758;2023-09-18T14:43:18;8.32;;;7.43;;
81894;SDS011;71358;45.642;13.758;2023-09-18T14:46:03;7.47;;;6.78;;
81894;SDS011;71358;45.642;13.758;2023-09-18T14:48:48;8.13;;;7.35;;
81894;SDS011;71358;45.642;13.758;2023-09-18T14:51:34;8.52;;;7.38;;
81894;SDS011;71358;45.642;13.758;2023-09-18T14:54:18;8.52;;;7.38;;
81894;SDS011;71358;45.642;13.758;2023-09-18T14:57:03;8.95;;;7.53;;
81894;SDS011;71358;45.642;13.758;2023-09-18T14:59:48;8.23;;;7.43;;
81894;SDS011;71358;45.642;13.758;2023-09-18T15:02:32;10.02;;;8.00;;
81894;SDS011;71358;45.642;13.758;2023-09-18T15:05:18;8.68;;;7.10;;
81894;SDS011;71358;45.642;13.758;2023-09-18T15:08:03;7.22;;;6.55;;
81894;SDS011;71358;45.642;13.758;2023-09-18T15:10:48;6.68;;;6.07;;
81894;SDS011;71358;45.642;13.758;2023-09-18T15:13:33;7.00;;;6.35;;
81894;SDS011;71358;45.642;13.758;2023-09-18T15:16:19;7.43;;;6.68;;
81894;SDS011;71358;45.642;13.758;2023-09-18T15:19:03;6.85;;;6.20;;
81894;SDS011;71358;45.642;13.758;2023-09-18T15:21:50;7.05;;;6.40;;
81894;SDS011;71358;45.642;13.758;2023-09-18T15:24:36;7.13;;;6.28;;
81894;SDS011;71358;45.642;13.758;2023-09-18T15:27:20;7.85;;;7.15;;
81894;SDS011;71358;45.642;13.758;2023-09-18T15:30:05;7.13;;;6.53;;
81894;SDS011;71358;45.642;13.758;2023-09-18T15:32:51;7.53;;;6.47;;
81894;SDS011;71358;45.642;13.758;2023-09-18T15:35:37;7.57;;;6.60;;
81894;SDS011;71358;45.642;13.758;2023-09-18T15:38:21;7.10;;;6.38;;
81894;SDS011;71358;45.642;13.758;2023-09-18T15:41:06;7.15;;;6.45;;
81894;SDS011;71358;45.642;13.758;2023-09-18T15:43:51;7.50;;;6.90;;
81894;SDS011;71358;45.642;13.758;2023-09-18T15:46:36;6.65;;;6.13;;
81894;SDS011;71358;45.642;13.758;2023-09-18T15:49:20;6.88;;;6.18;;
81894;SDS011;71358;45.642;13.758;2023-09-18T15:52:05;6.85;;;6.35;;
81894;SDS011;71358;45.642;13.758;2023-09-18T15:54:49;8.02;;;7.00;;
81894;SDS011;71358;45.642;13.758;2023-09-18T15:57:34;7.53;;;6.85;;
81894;SDS011;71358;45.642;13.758;2023-09-18T16:00:23;7.13;;;6.47;;
81894;SDS011;71358;45.642;13.758;2023-09-18T16:03:07;7.65;;;6.97;;
81894;SDS011;71358;45.642;13.758;2023-09-18T16:05:52;7.75;;;7.03;;
81894;SDS011;71358;45.642;13.758;2023-09-18T16:08:39;7.65;;;7.05;;
81894;SDS011;71358;45.642;13.758;2023-09-18T16:11:24;8.05;;;7.25;;
81894;SDS011;71358;45.642;13.758;2023-09-18T16:14:08;7.65;;;6.95;;
81894;SDS011;71358;45.642;13.758;2023-09-18T16:16:53;8.43;;;7.60;;
81894;SDS011;71358;45.642;13.758;2023-09-18T16:19:37;8.57;;;7.57;;
81894;SDS011;71358;45.642;13.758;2023-09-18T16:22:22;7.68;;;7.00;;
81894;SDS011;71358;45.642;13.758;2023-09-18T16:25:07;9.27;;;7.68;;
81894;SDS011;71358;45.642;13.758;2023-09-18T16:27:52;7.82;;;7.07;;
81894;SDS011;71358;45.642;13.758;2023-09-18T16:30:38;8.88;;;7.55;;
81894;SDS011;71358;45.642;13.758;2023-09-18T16:33:23;7.15;;;6.45;;
81894;SDS011;71358;45.642;13.758;2023-09-18T16:36:08;8.07;;;7.28;;